createdAt,value
2019-05-06T00:00:24.578Z,101250.78
2019-05-06T00:02:54.551Z,101250.84
2019-05-06T00:05:25.490Z,101248.30
2019-05-06T00:07:54.398Z,101246.91
2019-05-06T00:10:35.120Z,101247.23
2019-05-06T00:13:04.563Z,101247.09
2019-05-06T00:15:34.309Z,101245.64
2019-05-06T00:18:04.499Z,101249.38
2019-05-06T00:20:34.751Z,101252.59
2019-05-06T00:23:11.216Z,101246.63
2019-05-06T00:25:46.837Z,101247.78
2019-05-06T00:28:34.024Z,101245.49
2019-05-06T00:31:12.873Z,101247.92
2019-05-06T00:33:34.241Z,101247.69
2019-05-06T00:36:04.554Z,101240.41
2019-05-06T00:38:33.978Z,101242.19
2019-05-06T00:41:06.955Z,101234.20
2019-05-06T00:43:35.260Z,101236.63
2019-05-06T00:46:04.699Z,101227.94
2019-05-06T00:48:34.161Z,101230.48
2019-05-06T00:51:04.559Z,101231.98
2019-05-06T00:53:34.810Z,101236.94
2019-05-06T00:56:04.550Z,101234.09
2019-05-06T00:58:34.778Z,101232.16
2019-05-06T01:01:04.670Z,101232.91
2019-05-06T01:03:34.772Z,101231.72
2019-05-06T01:06:04.064Z,101232.40
2019-05-06T01:08:34.767Z,101233.91
2019-05-06T01:11:04.104Z,101235.41
2019-05-06T01:13:35.076Z,101232.61
2019-05-06T01:16:04.306Z,101232.84
2019-05-06T01:18:34.073Z,101231.45
2019-05-06T01:21:10.948Z,101236.77
2019-05-06T01:23:43.700Z,101236.13
2019-05-06T01:26:15.045Z,101238.94
2019-05-06T01:28:43.796Z,101235.69
2019-05-06T01:31:14.004Z,101245.41
2019-05-06T01:33:42.531Z,101240.39
2019-05-06T01:36:11.309Z,101241.69
2019-05-06T01:38:50.341Z,101240.19
2019-05-06T01:41:29.063Z,101242.41
2019-05-06T01:43:57.634Z,101237.91
2019-05-06T01:46:25.933Z,101239.88
2019-05-06T01:48:54.227Z,101240.08
2019-05-06T01:51:24.129Z,101239.83
2019-05-06T01:53:54.498Z,101241.97
2019-05-06T01:56:24.131Z,101243.35
2019-05-06T01:58:53.644Z,101249.55
2019-05-06T02:01:22.044Z,101249.55
2019-05-06T02:03:50.353Z,101240.50
2019-05-06T02:06:18.903Z,101244.52
2019-05-06T02:08:47.213Z,101238.64
2019-05-06T02:11:15.509Z,101240.42
2019-05-06T02:13:44.659Z,101242.00
2019-05-06T02:16:14.598Z,101244.91
2019-05-06T02:18:44.805Z,101241.30
2019-05-06T02:21:14.974Z,101237.66
2019-05-06T02:23:47.572Z,101241.69
2019-05-06T02:26:16.181Z,101244.84
2019-05-06T02:28:46.476Z,101240.77
2019-05-06T02:31:25.844Z,101245.52
2019-05-06T02:33:56.215Z,101248.59
2019-05-06T02:36:28.854Z,101250.20
2019-05-06T02:38:57.512Z,101242.92
2019-05-06T02:41:26.107Z,101243.59
2019-05-06T02:43:54.677Z,101241.28
2019-05-06T02:46:23.793Z,101241.47
2019-05-06T02:48:54.483Z,101240.25
2019-05-06T02:51:24.360Z,101235.69
2019-05-06T02:53:53.780Z,101239.43
2019-05-06T02:56:23.963Z,101239.98
2019-05-06T02:58:53.502Z,101232.55
2019-05-06T03:01:23.327Z,101247.91
2019-05-06T03:03:53.640Z,101241.69
2019-05-06T03:06:23.849Z,101238.80
2019-05-06T03:08:54.214Z,101244.09
2019-05-06T03:11:24.007Z,101239.81
2019-05-06T03:13:53.662Z,101239.17
2019-05-06T03:16:23.714Z,101244.38
2019-05-06T03:18:53.432Z,101240.11
2019-05-06T03:21:44.772Z,101233.59
2019-05-06T03:24:19.929Z,101228.39
2019-05-06T03:26:56.168Z,101224.30
2019-05-06T03:29:20.289Z,101227.44
2019-05-06T03:31:48.846Z,101223.62
2019-05-06T03:34:38.185Z,101227.98
2019-05-06T03:36:48.887Z,101233.01
2019-05-06T03:39:17.616Z,101227.41
2019-05-06T03:41:45.988Z,101228.97
2019-05-06T03:44:16.662Z,101225.06
2019-05-06T03:47:05.355Z,101220.79
2019-05-06T03:49:33.946Z,101223.11
2019-05-06T03:52:02.869Z,101218.54
2019-05-06T03:54:34.313Z,101217.69
2019-05-06T03:57:03.906Z,101216.66
2019-05-06T03:59:33.495Z,101219.63
2019-05-06T04:02:05.212Z,101215.92
2019-05-06T04:04:33.352Z,101222.12
2019-05-06T04:07:03.387Z,101213.17
2019-05-06T04:09:36.281Z,101225.91
2019-05-06T04:12:03.543Z,101223.85
2019-05-06T04:14:33.682Z,101224.13
2019-05-06T04:17:12.843Z,101223.34
2019-05-06T04:19:43.695Z,101220.45
2019-05-06T04:22:23.571Z,101222.20
2019-05-06T04:25:09.182Z,101226.33
2019-05-06T04:27:48.367Z,101220.86
2019-05-06T04:30:17.234Z,101216.46
2019-05-06T04:32:45.547Z,101227.22
2019-05-06T04:35:14.719Z,101229.70
2019-05-06T04:37:43.460Z,101226.44
2019-05-06T04:40:13.120Z,101223.69
2019-05-06T04:42:44.357Z,101228.77
2019-05-06T04:45:13.479Z,101233.26
2019-05-06T04:47:43.419Z,101231.42
2019-05-06T04:50:13.256Z,101228.86
2019-05-06T04:52:43.263Z,101228.53
2019-05-06T04:55:14.115Z,101233.70
2019-05-06T04:57:43.927Z,101235.32
2019-05-06T05:00:13.270Z,101234.55
2019-05-06T05:02:45.921Z,101238.52
2019-05-06T05:05:13.939Z,101235.92
2019-05-06T05:07:42.525Z,101236.09
2019-05-06T05:10:13.080Z,101243.25
2019-05-06T05:12:55.748Z,101243.39
2019-05-06T05:15:32.522Z,101239.25
2019-05-06T05:18:17.859Z,101242.48
2019-05-06T05:20:46.871Z,101246.06
2019-05-06T05:23:15.278Z,101245.84
2019-05-06T05:25:43.823Z,101251.60
2019-05-06T05:28:13.200Z,101250.91
2019-05-06T05:30:42.910Z,101252.92
2019-05-06T05:33:12.209Z,101249.61
2019-05-06T05:35:43.101Z,101247.25
2019-05-06T05:38:12.983Z,101251.22
2019-05-06T05:40:43.030Z,101246.02
2019-05-06T05:43:16.241Z,101259.25
2019-05-06T05:45:44.623Z,101259.12
2019-05-06T05:48:14.712Z,101265.92
2019-05-06T05:50:44.206Z,101269.02
2019-05-06T05:53:12.498Z,101272.89
2019-05-06T05:55:42.398Z,101280.40
2019-05-06T05:58:12.820Z,101283.14
2019-05-06T06:00:42.597Z,101278.26
2019-05-06T06:03:12.662Z,101276.05
2019-05-06T06:05:42.768Z,101266.88
2019-05-06T06:08:12.949Z,101267.23
2019-05-06T06:10:43.016Z,101266.88
2019-05-06T06:13:12.797Z,101260.63
2019-05-06T06:15:57.623Z,101261.84
2019-05-06T06:18:39.562Z,101261.02
2019-05-06T06:21:24.821Z,101263.54
2019-05-06T06:24:06.827Z,101264.69
2019-05-06T06:26:35.188Z,101265.66
2019-05-06T06:29:03.525Z,101265.59
2019-05-06T06:31:33.534Z,101265.59
2019-05-06T06:34:03.492Z,101268.12
2019-05-06T06:36:33.442Z,101265.88
2019-05-06T06:39:03.402Z,101262.52
2019-05-06T06:41:32.306Z,101255.95
2019-05-06T06:44:05.160Z,101265.36
2019-05-06T06:46:33.630Z,101262.12
2019-05-06T06:49:03.216Z,101270.22
2019-05-06T06:51:33.108Z,101268.45
2019-05-06T06:54:02.523Z,101262.57
2019-05-06T06:56:38.360Z,101261.45
2019-05-06T06:59:18.345Z,101260.80
2019-05-06T07:02:04.090Z,101260.40
2019-05-06T07:04:36.727Z,101261.41
2019-05-06T07:07:05.725Z,101275.60
2019-05-06T07:09:34.019Z,101266.01
2019-05-06T07:12:03.459Z,101266.12
2019-05-06T07:14:33.424Z,101262.85
2019-05-06T07:17:02.734Z,101266.48
2019-05-06T07:19:35.360Z,101266.80
2019-05-06T07:22:06.694Z,101261.52
2019-05-06T07:24:33.720Z,101262.80
2019-05-06T07:27:06.339Z,101265.95
2019-05-06T07:29:34.642Z,101269.38
2019-05-06T07:32:03.033Z,101268.43
2019-05-06T07:34:32.198Z,101269.69
2019-05-06T07:37:03.227Z,101268.41
2019-05-06T07:39:30.660Z,101267.59
2019-05-06T07:42:02.320Z,101265.33
2019-05-06T07:44:33.363Z,101263.10
2019-05-06T07:47:15.101Z,101258.20
2019-05-06T07:49:43.387Z,101263.07
2019-05-06T07:52:12.444Z,101250.20
2019-05-06T07:54:42.415Z,101253.95
2019-05-06T07:57:12.673Z,101251.96
2019-05-06T07:59:42.908Z,101251.47
2019-05-06T08:02:12.929Z,101244.05
2019-05-06T08:04:42.084Z,101249.74
2019-05-06T08:07:12.594Z,101249.80
2019-05-06T08:09:42.231Z,101257.14
2019-05-06T08:12:12.429Z,101257.17
2019-05-06T08:14:43.491Z,101258.90
2019-05-06T08:17:14.779Z,101255.41
2019-05-06T08:19:43.094Z,101251.98
2019-05-06T08:22:18.730Z,101259.56
2019-05-06T08:24:47.036Z,101256.77
2019-05-06T08:27:15.351Z,101256.25
2019-05-06T08:29:43.746Z,101252.64
2019-05-06T08:32:12.334Z,101249.52
2019-05-06T08:34:42.169Z,101248.34
2019-05-06T08:37:15.334Z,101252.20
2019-05-06T08:39:45.915Z,101246.52
2019-05-06T08:42:13.698Z,101246.63
2019-05-06T08:44:42.722Z,101246.03
2019-05-06T08:47:13.128Z,101243.94
2019-05-06T08:49:57.958Z,101247.65
2019-05-06T08:52:27.917Z,101241.72
2019-05-06T08:54:57.848Z,101243.45
2019-05-06T08:57:26.185Z,101241.97
2019-05-06T08:59:54.491Z,101240.94
2019-05-06T09:02:24.293Z,101242.47
2019-05-06T09:04:52.607Z,101235.27
2019-05-06T09:07:21.013Z,101241.47
2019-05-06T09:09:49.352Z,101239.97
2019-05-06T09:12:18.001Z,101240.41
2019-05-06T09:14:46.604Z,101239.53
2019-05-06T09:17:14.927Z,101231.74
2019-05-06T09:19:43.253Z,101230.73
2019-05-06T09:22:12.940Z,101232.91
2019-05-06T09:24:42.697Z,101236.05
2019-05-06T09:27:12.892Z,101229.68
2019-05-06T09:29:43.258Z,101225.33
2019-05-06T09:32:13.994Z,101222.64
2019-05-06T09:34:46.643Z,101216.17
2019-05-06T09:37:16.578Z,101213.46
2019-05-06T09:39:45.586Z,101210.33
2019-05-06T09:42:14.309Z,101212.67
2019-05-06T09:44:44.156Z,101215.41
2019-05-06T09:47:14.325Z,101205.73
2019-05-06T09:49:44.033Z,101208.58
2019-05-06T09:52:13.003Z,101200.98
2019-05-06T09:54:43.088Z,101208.95
2019-05-06T09:57:13.041Z,101207.72
2019-05-06T09:59:42.192Z,101211.11
2019-05-06T10:02:12.359Z,101203.86
2019-05-06T10:04:42.816Z,101207.27
2019-05-06T10:07:11.892Z,101207.54
2019-05-06T10:09:43.215Z,101209.87
2019-05-06T10:12:12.693Z,101203.12
2019-05-06T10:14:43.298Z,101196.73
2019-05-06T10:17:13.020Z,101199.30
2019-05-06T10:19:42.893Z,101197.67
2019-05-06T10:22:12.651Z,101188.98
2019-05-06T10:24:43.109Z,101186.23
2019-05-06T10:27:12.096Z,101190.89
2019-05-06T10:29:43.159Z,101196.28
2019-05-06T10:32:29.701Z,101200.66
2019-05-06T10:34:58.865Z,101195.24
2019-05-06T10:37:36.835Z,101198.73
2019-05-06T10:40:23.085Z,101190.86
2019-05-06T10:43:03.497Z,101182.86
2019-05-06T10:45:32.736Z,101189.27
2019-05-06T10:48:02.364Z,101186.00
2019-05-06T10:50:32.507Z,101183.66
2019-05-06T10:53:14.921Z,101182.77
2019-05-06T10:55:44.955Z,101185.14
2019-05-06T10:58:13.620Z,101186.47
2019-05-06T11:00:42.548Z,101184.38
2019-05-06T11:03:14.967Z,101181.31
2019-05-06T11:05:43.275Z,101185.41
2019-05-06T11:08:11.841Z,101179.48
2019-05-06T11:10:42.220Z,101181.63
2019-05-06T11:13:12.848Z,101171.80
2019-05-06T11:15:43.134Z,101174.27
2019-05-06T11:18:13.589Z,101171.73
2019-05-06T11:20:43.461Z,101167.17
2019-05-06T11:23:10.979Z,101165.06
2019-05-06T11:25:39.279Z,101175.00
2019-05-06T11:28:09.225Z,101172.39
2019-05-06T11:30:39.152Z,101168.17
2019-05-06T11:33:24.650Z,101163.05
2019-05-06T11:35:54.601Z,101165.80
2019-05-06T11:38:23.548Z,101165.99
2019-05-06T11:40:53.032Z,101160.11
2019-05-06T11:43:22.770Z,101159.97
2019-05-06T11:45:52.124Z,101167.78
2019-05-06T11:48:22.255Z,101169.08
2019-05-06T11:50:52.783Z,101171.73
2019-05-06T11:53:23.197Z,101168.50
2019-05-06T11:55:54.405Z,101167.88
2019-05-06T11:58:38.798Z,101172.07
2019-05-06T12:01:08.758Z,101172.73
2019-05-06T12:03:37.076Z,101166.52
2019-05-06T12:06:05.395Z,101167.50
2019-05-06T12:08:33.739Z,101173.06
2019-05-06T12:11:02.928Z,101174.62
2019-05-06T12:13:33.541Z,101171.40
2019-05-06T12:16:02.383Z,101169.40
2019-05-06T12:18:30.860Z,101171.47
2019-05-06T12:21:09.056Z,101164.80
2019-05-06T12:23:29.263Z,101162.13
2019-05-06T12:25:57.660Z,101164.13
2019-05-06T12:28:26.057Z,101172.03
2019-05-06T12:30:55.206Z,101167.20
2019-05-06T12:33:27.883Z,101169.01
2019-05-06T12:35:57.843Z,101173.18
2019-05-06T12:38:36.740Z,101172.91
2019-05-06T12:41:05.313Z,101180.05
2019-05-06T12:43:38.222Z,101176.14
2019-05-06T12:46:08.152Z,101183.36
2019-05-06T12:48:40.583Z,101192.41
2019-05-06T12:51:08.926Z,101188.50
2019-05-06T12:53:37.225Z,101191.33
2019-05-06T12:56:05.813Z,101184.64
2019-05-06T12:58:34.109Z,101185.16
2019-05-06T13:01:03.998Z,101185.36
2019-05-06T13:03:34.963Z,101182.77
2019-05-06T13:06:07.197Z,101178.70
2019-05-06T13:08:52.932Z,101171.67
2019-05-06T13:11:02.833Z,101174.93
2019-05-06T13:13:33.123Z,101178.98
2019-05-06T13:16:02.798Z,101164.16
2019-05-06T13:18:32.714Z,101164.16
2019-05-06T13:21:05.856Z,101174.53
2019-05-06T13:23:38.508Z,101163.20
2019-05-06T13:26:07.004Z,101158.21
2019-05-06T13:28:37.271Z,101150.17
2019-05-06T13:31:19.343Z,101150.31
2019-05-06T13:33:37.582Z,101148.58
2019-05-06T13:36:06.110Z,101150.84
2019-05-06T13:38:34.454Z,101149.38
2019-05-06T13:41:03.261Z,101151.98
2019-05-06T13:43:33.400Z,101146.23
2019-05-06T13:46:06.917Z,101152.89
2019-05-06T13:48:35.351Z,101144.55
2019-05-06T13:51:07.738Z,101141.48
2019-05-06T13:53:40.539Z,101136.50
2019-05-06T13:56:06.413Z,101138.66
2019-05-06T13:58:35.011Z,101123.09
2019-05-06T14:01:04.963Z,101122.45
2019-05-06T14:03:33.254Z,101123.79
2019-05-06T14:06:03.017Z,101112.57
2019-05-06T14:08:33.019Z,101120.58
2019-05-06T14:11:02.827Z,101121.59
2019-05-06T14:13:32.783Z,101121.41
2019-05-06T14:16:03.946Z,101118.44
2019-05-06T14:18:33.285Z,101114.15
2019-05-06T14:21:02.937Z,101117.98
2019-05-06T14:23:32.694Z,101118.98
2019-05-06T14:26:04.125Z,101114.84
2019-05-06T14:28:42.753Z,101111.40
2019-05-06T14:31:12.050Z,101115.69
2019-05-06T14:33:42.646Z,101122.67
2019-05-06T14:36:12.645Z,101116.69
2019-05-06T14:38:42.812Z,101111.86
2019-05-06T14:41:14.859Z,101119.45
2019-05-06T14:43:43.174Z,101112.19
2019-05-06T14:46:11.784Z,101108.75
2019-05-06T14:48:40.090Z,101115.37
2019-05-06T14:51:08.467Z,101116.55
2019-05-06T14:53:36.800Z,101114.72
2019-05-06T14:56:06.731Z,101107.59
2019-05-06T14:58:35.043Z,101111.73
2019-05-06T15:01:03.831Z,101106.95
2019-05-06T15:03:32.644Z,101103.62
2019-05-06T15:06:02.585Z,101106.80
2019-05-06T15:08:32.241Z,101102.81
2019-05-06T15:11:02.898Z,101105.47
2019-05-06T15:13:32.131Z,101104.64
2019-05-06T15:16:03.497Z,101111.25
2019-05-06T15:18:32.128Z,101114.06
2019-05-06T15:21:28.997Z,101109.23
2019-05-06T15:23:30.603Z,101109.08
2019-05-06T15:25:58.919Z,101107.78
2019-05-06T15:28:27.245Z,101109.44
2019-05-06T15:30:57.196Z,101111.12
2019-05-06T15:33:27.137Z,101106.29
2019-05-06T15:36:02.245Z,101109.89
2019-05-06T15:38:31.193Z,101109.89
2019-05-06T15:40:59.976Z,101111.36
2019-05-06T15:43:28.286Z,101115.02
2019-05-06T15:45:56.633Z,101113.66
2019-05-06T15:48:25.220Z,101113.64
2019-05-06T15:50:53.640Z,101115.87
2019-05-06T15:53:22.556Z,101115.59
2019-05-06T15:55:53.298Z,101116.66
2019-05-06T15:58:22.851Z,101118.92
2019-05-06T16:00:53.125Z,101115.25
2019-05-06T16:03:22.712Z,101114.58
2019-05-06T16:05:54.549Z,101107.78
2019-05-06T16:08:24.283Z,101106.95
2019-05-06T16:10:55.748Z,101107.83
2019-05-06T16:13:22.304Z,101112.56
2019-05-06T16:15:53.133Z,101104.36
2019-05-06T16:18:23.195Z,101103.55
2019-05-06T16:20:51.354Z,101107.50
2019-05-06T16:23:23.941Z,101098.14
2019-05-06T16:25:52.525Z,101103.19
2019-05-06T16:28:22.497Z,101097.86
2019-05-06T16:30:53.204Z,101099.84
2019-05-06T16:33:22.083Z,101090.03
2019-05-06T16:35:52.262Z,101093.34
2019-05-06T16:38:22.852Z,101093.34
2019-05-06T16:40:54.619Z,101094.14
2019-05-06T16:43:22.136Z,101092.92
2019-05-06T16:45:52.954Z,101081.20
2019-05-06T16:48:22.556Z,101086.25
2019-05-06T16:50:50.874Z,101085.53
2019-05-06T16:53:19.184Z,101090.98
2019-05-06T16:55:52.695Z,101081.42
2019-05-06T16:58:32.172Z,101084.59
2019-05-06T17:00:59.759Z,101090.94
2019-05-06T17:03:42.838Z,101094.90
2019-05-06T17:06:23.106Z,101095.69
2019-05-06T17:08:52.830Z,101093.95
2019-05-06T17:11:29.144Z,101090.61
2019-05-06T17:13:52.288Z,101094.93
2019-05-06T17:16:22.066Z,101102.86
2019-05-06T17:18:54.223Z,101084.08
2019-05-06T17:21:22.271Z,101089.97
2019-05-06T17:23:52.215Z,101090.42
2019-05-06T17:26:22.463Z,101087.39
2019-05-06T17:28:52.938Z,101075.84
2019-05-06T17:31:39.218Z,101080.99
2019-05-06T17:34:09.245Z,101075.27
2019-05-06T17:36:39.705Z,101075.13
2019-05-06T17:39:11.310Z,101076.95
2019-05-06T17:41:45.863Z,101080.91
2019-05-06T17:44:12.031Z,101085.28
2019-05-06T17:47:02.536Z,101082.89
2019-05-06T17:49:32.051Z,101074.65
2019-05-06T17:52:04.982Z,101083.34
2019-05-06T17:54:33.296Z,101081.20
2019-05-06T17:57:04.446Z,101084.17
2019-05-06T17:59:33.172Z,101078.73
2019-05-06T18:02:09.551Z,101079.92
2019-05-06T18:04:37.867Z,101081.37
2019-05-06T18:07:06.184Z,101084.66
2019-05-06T18:09:34.507Z,101076.50
2019-05-06T18:12:03.247Z,101081.57
2019-05-06T18:14:33.193Z,101080.75
2019-05-06T18:17:03.691Z,101082.19
2019-05-06T18:19:33.192Z,101082.92
2019-05-06T18:22:02.548Z,101072.41
2019-05-06T18:24:33.067Z,101084.13
2019-05-06T18:27:02.681Z,101080.61
2019-05-06T18:29:33.454Z,101082.09
2019-05-06T18:32:03.508Z,101074.70
2019-05-06T18:34:32.580Z,101080.80
2019-05-06T18:37:03.208Z,101080.20
2019-05-06T18:39:33.736Z,101076.09
2019-05-06T18:42:13.410Z,101068.02
2019-05-06T18:44:33.256Z,101071.75
2019-05-06T18:47:02.768Z,101070.28
2019-05-06T18:49:33.679Z,101066.70
2019-05-06T18:52:01.986Z,101065.50
2019-05-06T18:54:30.481Z,101068.63
2019-05-06T18:57:02.670Z,101071.05
2019-05-06T18:59:29.836Z,101071.48
2019-05-06T19:01:58.381Z,101068.88
2019-05-06T19:04:28.600Z,101073.68
2019-05-06T19:07:09.534Z,101085.09
2019-05-06T19:09:28.758Z,101086.68
2019-05-06T19:11:57.053Z,101090.90
2019-05-06T19:14:25.359Z,101092.22
2019-05-06T19:16:55.226Z,101092.37
2019-05-06T19:19:23.655Z,101094.17
2019-05-06T19:21:52.477Z,101093.41
2019-05-06T19:24:22.645Z,101093.75
2019-05-06T19:26:52.724Z,101092.00
2019-05-06T19:29:22.983Z,101107.39
2019-05-06T19:31:52.152Z,101111.68
2019-05-06T19:34:20.597Z,101107.73
2019-05-06T19:36:48.906Z,101107.61
2019-05-06T19:39:17.474Z,101116.61
2019-05-06T19:41:45.800Z,101116.73
2019-05-06T19:44:14.085Z,101114.85
2019-05-06T19:46:42.740Z,101120.12
2019-05-06T19:49:11.421Z,101115.83
2019-05-06T19:51:39.702Z,101113.35
2019-05-06T19:54:08.012Z,101109.03
2019-05-06T19:56:36.309Z,101107.23
2019-05-06T19:59:04.619Z,101112.22
2019-05-06T20:01:32.929Z,101107.94
2019-05-06T20:04:02.526Z,101108.91
2019-05-06T20:06:41.431Z,101106.77
2019-05-06T20:09:27.556Z,101112.49
2019-05-06T20:11:57.488Z,101104.33
2019-05-06T20:14:25.796Z,101104.55
2019-05-06T20:16:54.132Z,101108.00
2019-05-06T20:19:30.705Z,101110.52
2019-05-06T20:21:52.786Z,101100.66
2019-05-06T20:24:22.516Z,101100.66
2019-05-06T20:26:52.711Z,101110.50
2019-05-06T20:29:22.440Z,101103.70
2019-05-06T20:31:53.345Z,101109.45
2019-05-06T20:34:22.417Z,101108.97
2019-05-06T20:36:52.867Z,101115.55
2019-05-06T20:39:23.044Z,101119.83
2019-05-06T20:41:51.098Z,101116.74
2019-05-06T20:44:19.387Z,101119.00
2019-05-06T20:46:47.707Z,101127.12
2019-05-06T20:49:16.172Z,101119.22
2019-05-06T20:51:44.497Z,101123.51
2019-05-06T20:54:13.097Z,101121.25
2019-05-06T20:56:42.120Z,101122.19
2019-05-06T20:59:12.160Z,101129.75
2019-05-06T21:01:42.497Z,101126.36
2019-05-06T21:04:12.893Z,101134.86
2019-05-06T21:06:42.611Z,101138.13
2019-05-06T21:09:12.568Z,101144.41
2019-05-06T21:11:42.125Z,101146.28
2019-05-06T21:14:13.083Z,101150.03
2019-05-06T21:16:42.289Z,101152.37
2019-05-06T21:19:12.616Z,101148.80
2019-05-06T21:21:42.977Z,101143.89
2019-05-06T21:24:12.914Z,101139.33
2019-05-06T21:26:42.903Z,101140.47
2019-05-06T21:29:12.756Z,101137.03
2019-05-06T21:31:42.289Z,101136.52
2019-05-06T21:34:12.657Z,101138.61
2019-05-06T21:36:42.228Z,101137.68
2019-05-06T21:39:12.799Z,101138.76
2019-05-06T21:41:42.702Z,101137.78
2019-05-06T21:44:12.997Z,101137.68
2019-05-06T21:46:42.820Z,101134.80
2019-05-06T21:49:12.099Z,101134.42
2019-05-06T21:51:42.546Z,101130.97
2019-05-06T21:54:12.560Z,101135.88
2019-05-06T21:56:42.466Z,101132.88
2019-05-06T21:59:12.919Z,101134.89
2019-05-06T22:01:43.043Z,101132.27
2019-05-06T22:04:12.848Z,101129.84
2019-05-06T22:06:42.874Z,101130.67
2019-05-06T22:09:12.272Z,101130.95
2019-05-06T22:11:42.350Z,101128.44
2019-05-06T22:14:12.330Z,101140.25
2019-05-06T22:16:40.843Z,101131.20
2019-05-06T22:19:09.173Z,101130.23
2019-05-06T22:21:39.110Z,101136.45
2019-05-06T22:24:07.440Z,101130.83
2019-05-06T22:26:36.045Z,101125.95
2019-05-06T22:29:04.593Z,101128.09
2019-05-06T22:31:33.403Z,101127.95
2019-05-06T22:34:01.701Z,101129.75
2019-05-06T22:36:32.091Z,101127.38
2019-05-06T22:39:02.300Z,101128.45
2019-05-06T22:41:32.418Z,101129.66
2019-05-06T22:44:12.418Z,101131.31
2019-05-06T22:46:32.814Z,101123.33
2019-05-06T22:49:02.522Z,101129.27
2019-05-06T22:51:32.290Z,101125.70
2019-05-06T22:54:02.750Z,101127.70
2019-05-06T22:56:32.482Z,101121.62
2019-05-06T22:59:03.251Z,101126.05
2019-05-06T23:01:54.298Z,101133.58
2019-05-06T23:04:24.100Z,101131.06
2019-05-06T23:06:52.683Z,101138.22
2019-05-06T23:09:22.879Z,101134.08
2019-05-06T23:11:51.590Z,101133.70
2019-05-06T23:14:30.618Z,101143.03
2019-05-06T23:16:51.975Z,101139.92
2019-05-06T23:19:21.996Z,101144.58
2019-05-06T23:21:50.068Z,101146.38
2019-05-06T23:24:18.400Z,101145.52
2019-05-06T23:26:46.693Z,101147.31
2019-05-06T23:29:15.385Z,101143.38
2019-05-06T23:31:43.682Z,101138.27
2019-05-06T23:34:12.696Z,101143.28
2019-05-06T23:36:55.773Z,101138.37
2019-05-06T23:40:03.496Z,101144.48
2019-05-06T23:43:08.297Z,101138.03
2019-05-06T23:46:13.537Z,101145.66
2019-05-06T23:49:18.374Z,101142.55
2019-05-06T23:52:23.058Z,101144.83
2019-05-06T23:55:27.881Z,101140.55
2019-05-06T23:57:55.205Z,101142.11
